sensor_id;sensor_type;location;lat;lon;timestamp;temperature;humidity
22321;DHT22;11328;53.928;18.522;2022-12-07T00:01:41;3.30;99.90
22321;DHT22;11328;53.928;18.522;2022-12-07T00:04:14;3.30;99.90
22321;DHT22;11328;53.928;18.522;2022-12-07T00:06:45;3.30;99.90
22321;DHT22;11328;53.928;18.522;2022-12-07T00:09:16;3.30;99.90
22321;DHT22;11328;53.928;18.522;2022-12-07T00:11:44;3.40;99.90
22321;DHT22;11328;53.928;18.522;2022-12-07T00:14:17;3.50;99.90
22321;DHT22;11328;53.928;18.522;2022-12-07T00:16:46;3.50;99.90
22321;DHT22;11328;53.928;18.522;2022-12-07T00:19:19;3.50;99.90
22321;DHT22;11328;53.928;18.522;2022-12-07T00:21:46;3.60;99.90
22321;DHT22;11328;53.928;18.522;2022-12-07T00:24:13;3.60;99.90
22321;DHT22;11328;53.928;18.522;2022-12-07T00:26:41;3.60;99.90
22321;DHT22;11328;53.928;18.522;2022-12-07T00:29:20;3.60;99.90
22321;DHT22;11328;53.928;18.522;2022-12-07T00:31:49;3.50;99.90
22321;DHT22;11328;53.928;18.522;2022-12-07T00:34:21;3.40;99.90
22321;DHT22;11328;53.928;18.522;2022-12-07T00:36:48;3.50;99.90
22321;DHT22;11328;53.928;18.522;2022-12-07T00:39:16;3.40;99.90
22321;DHT22;11328;53.928;18.522;2022-12-07T00:41:43;3.50;99.90
22321;DHT22;11328;53.928;18.522;2022-12-07T00:44:10;3.50;99.90
22321;DHT22;11328;53.928;18.522;2022-12-07T00:46:37;3.50;99.90
22321;DHT22;11328;53.928;18.522;2022-12-07T00:49:04;3.40;99.90
22321;DHT22;11328;53.928;18.522;2022-12-07T00:51:31;3.50;99.90
22321;DHT22;11328;53.928;18.522;2022-12-07T00:53:58;3.50;99.90
22321;DHT22;11328;53.928;18.522;2022-12-07T00:56:27;3.50;99.90
22321;DHT22;11328;53.928;18.522;2022-12-07T00:58:57;3.50;99.90
22321;DHT22;11328;53.928;18.522;2022-12-07T01:01:30;3.50;99.90
22321;DHT22;11328;53.928;18.522;2022-12-07T01:04:00;3.60;99.90
22321;DHT22;11328;53.928;18.522;2022-12-07T01:06:28;3.70;99.90
22321;DHT22;11328;53.928;18.522;2022-12-07T01:08:56;3.70;99.90
22321;DHT22;11328;53.928;18.522;2022-12-07T01:11:27;3.60;99.90
22321;DHT22;11328;53.928;18.522;2022-12-07T01:13:56;3.70;99.90
22321;DHT22;11328;53.928;18.522;2022-12-07T01:16:26;3.70;99.90
22321;DHT22;11328;53.928;18.522;2022-12-07T01:18:56;3.70;99.90
22321;DHT22;11328;53.928;18.522;2022-12-07T01:21:29;3.50;99.90
22321;DHT22;11328;53.928;18.522;2022-12-07T01:24:02;3.60;99.90
22321;DHT22;11328;53.928;18.522;2022-12-07T01:26:30;3.60;99.90
22321;DHT22;11328;53.928;18.522;2022-12-07T01:28:57;3.60;99.90
22321;DHT22;11328;53.928;18.522;2022-12-07T01:31:26;3.60;99.90
22321;DHT22;11328;53.928;18.522;2022-12-07T01:33:56;3.60;99.90
22321;DHT22;11328;53.928;18.522;2022-12-07T01:36:33;3.60;99.90
22321;DHT22;11328;53.928;18.522;2022-12-07T01:39:04;3.60;99.90
22321;DHT22;11328;53.928;18.522;2022-12-07T01:41:36;3.60;99.90
22321;DHT22;11328;53.928;18.522;2022-12-07T01:52:28;3.50;99.90
22321;DHT22;11328;53.928;18.522;2022-12-07T01:55:01;3.50;99.90
22321;DHT22;11328;53.928;18.522;2022-12-07T01:57:32;3.50;99.90
22321;DHT22;11328;53.928;18.522;2022-12-07T02:00:03;3.60;99.90
22321;DHT22;11328;53.928;18.522;2022-12-07T02:03:30;3.50;99.90
22321;DHT22;11328;53.928;18.522;2022-12-07T02:05:43;3.60;99.90
22321;DHT22;11328;53.928;18.522;2022-12-07T02:08:12;3.70;99.90
22321;DHT22;11328;53.928;18.522;2022-12-07T02:30:18;4.00;99.90
22321;DHT22;11328;53.928;18.522;2022-12-07T02:33:00;4.00;99.90
22321;DHT22;11328;53.928;18.522;2022-12-07T02:35:53;3.90;99.90
22321;DHT22;11328;53.928;18.522;2022-12-07T02:41:52;3.60;99.90
22321;DHT22;11328;53.928;18.522;2022-12-07T02:44:26;3.60;99.90
22321;DHT22;11328;53.928;18.522;2022-12-07T02:46:59;3.50;99.90
22321;DHT22;11328;53.928;18.522;2022-12-07T02:49:30;3.40;99.90
22321;DHT22;11328;53.928;18.522;2022-12-07T02:51:58;3.40;99.90
22321;DHT22;11328;53.928;18.522;2022-12-07T02:54:25;3.40;99.90
22321;DHT22;11328;53.928;18.522;2022-12-07T02:57:00;3.30;99.90
22321;DHT22;11328;53.928;18.522;2022-12-07T03:02:59;3.30;99.90
22321;DHT22;11328;53.928;18.522;2022-12-07T03:06:11;3.30;99.90
22321;DHT22;11328;53.928;18.522;2022-12-07T03:11:50;3.10;99.90
22321;DHT22;11328;53.928;18.522;2022-12-07T03:14:33;3.00;99.90
22321;DHT22;11328;53.928;18.522;2022-12-07T03:17:12;3.10;99.90
22321;DHT22;11328;53.928;18.522;2022-12-07T03:19:43;3.00;99.90
22321;DHT22;11328;53.928;18.522;2022-12-07T03:22:13;3.00;99.90
22321;DHT22;11328;53.928;18.522;2022-12-07T03:24:49;3.00;99.90
22321;DHT22;11328;53.928;18.522;2022-12-07T03:27:26;3.10;99.90
22321;DHT22;11328;53.928;18.522;2022-12-07T03:30:20;3.10;99.90
22321;DHT22;11328;53.928;18.522;2022-12-07T03:32:59;3.10;99.90
22321;DHT22;11328;53.928;18.522;2022-12-07T03:35:37;3.10;99.90
22321;DHT22;11328;53.928;18.522;2022-12-07T03:38:25;3.10;99.90
22321;DHT22;11328;53.928;18.522;2022-12-07T03:43:41;3.10;99.90
22321;DHT22;11328;53.928;18.522;2022-12-07T03:47:08;3.20;99.90
22321;DHT22;11328;53.928;18.522;2022-12-07T03:49:25;3.20;99.90
22321;DHT22;11328;53.928;18.522;2022-12-07T03:52:07;3.20;99.90
22321;DHT22;11328;53.928;18.522;2022-12-07T03:57:44;3.20;99.90
22321;DHT22;11328;53.928;18.522;2022-12-07T04:00:15;3.20;99.90
22321;DHT22;11328;53.928;18.522;2022-12-07T04:02:42;3.10;99.90
22321;DHT22;11328;53.928;18.522;2022-12-07T04:05:10;3.20;99.90
22321;DHT22;11328;53.928;18.522;2022-12-07T04:07:37;3.20;99.90
22321;DHT22;11328;53.928;18.522;2022-12-07T04:10:05;3.20;99.90
22321;DHT22;11328;53.928;18.522;2022-12-07T04:12:32;3.20;99.90
22321;DHT22;11328;53.928;18.522;2022-12-07T04:14:59;3.20;99.90
22321;DHT22;11328;53.928;18.522;2022-12-07T04:17:26;3.20;99.90
22321;DHT22;11328;53.928;18.522;2022-12-07T04:19:53;3.20;99.90
22321;DHT22;11328;53.928;18.522;2022-12-07T04:22:20;3.30;99.90
22321;DHT22;11328;53.928;18.522;2022-12-07T04:24:47;3.30;99.90
22321;DHT22;11328;53.928;18.522;2022-12-07T04:27:14;3.40;99.90
22321;DHT22;11328;53.928;18.522;2022-12-07T04:29:41;3.40;99.90
22321;DHT22;11328;53.928;18.522;2022-12-07T04:32:08;3.40;99.90
22321;DHT22;11328;53.928;18.522;2022-12-07T04:34:35;3.40;99.90
22321;DHT22;11328;53.928;18.522;2022-12-07T04:37:02;3.30;99.90
22321;DHT22;11328;53.928;18.522;2022-12-07T04:39:31;3.30;99.90
22321;DHT22;11328;53.928;18.522;2022-12-07T04:42:00;3.20;99.90
22321;DHT22;11328;53.928;18.522;2022-12-07T04:44:28;3.30;99.90
22321;DHT22;11328;53.928;18.522;2022-12-07T04:46:56;3.30;99.90
22321;DHT22;11328;53.928;18.522;2022-12-07T04:49:24;3.30;99.90
22321;DHT22;11328;53.928;18.522;2022-12-07T04:51:52;3.30;99.90
22321;DHT22;11328;53.928;18.522;2022-12-07T04:54:19;3.30;99.90
22321;DHT22;11328;53.928;18.522;2022-12-07T04:56:46;3.30;99.90
22321;DHT22;11328;53.928;18.522;2022-12-07T04:59:14;3.30;99.90
22321;DHT22;11328;53.928;18.522;2022-12-07T05:01:43;3.20;99.90
22321;DHT22;11328;53.928;18.522;2022-12-07T05:04:10;3.30;99.90
22321;DHT22;11328;53.928;18.522;2022-12-07T05:06:37;3.30;99.90
22321;DHT22;11328;53.928;18.522;2022-12-07T05:09:04;3.30;99.90
22321;DHT22;11328;53.928;18.522;2022-12-07T05:11:31;3.30;99.90
22321;DHT22;11328;53.928;18.522;2022-12-07T05:14:17;3.30;99.90
22321;DHT22;11328;53.928;18.522;2022-12-07T05:16:48;3.30;99.90
22321;DHT22;11328;53.928;18.522;2022-12-07T05:19:18;3.30;99.90
22321;DHT22;11328;53.928;18.522;2022-12-07T05:21:46;3.30;99.90
22321;DHT22;11328;53.928;18.522;2022-12-07T05:24:15;3.20;99.90
22321;DHT22;11328;53.928;18.522;2022-12-07T05:26:43;3.30;99.90
22321;DHT22;11328;53.928;18.522;2022-12-07T05:29:15;3.30;99.90
22321;DHT22;11328;53.928;18.522;2022-12-07T05:31:43;3.30;99.90
22321;DHT22;11328;53.928;18.522;2022-12-07T05:34:11;3.30;99.90
22321;DHT22;11328;53.928;18.522;2022-12-07T05:36:39;3.40;99.90
22321;DHT22;11328;53.928;18.522;2022-12-07T05:39:06;3.40;99.90
22321;DHT22;11328;53.928;18.522;2022-12-07T05:41:34;3.40;99.90
22321;DHT22;11328;53.928;18.522;2022-12-07T05:44:19;3.40;99.90
22321;DHT22;11328;53.928;18.522;2022-12-07T05:46:46;3.40;99.90
22321;DHT22;11328;53.928;18.522;2022-12-07T05:49:13;3.30;99.90
22321;DHT22;11328;53.928;18.522;2022-12-07T05:51:41;3.30;99.90
22321;DHT22;11328;53.928;18.522;2022-12-07T05:54:08;3.30;99.90
22321;DHT22;11328;53.928;18.522;2022-12-07T05:56:35;3.30;99.90
22321;DHT22;11328;53.928;18.522;2022-12-07T05:59:02;3.40;99.90
22321;DHT22;11328;53.928;18.522;2022-12-07T06:01:49;3.40;99.90
22321;DHT22;11328;53.928;18.522;2022-12-07T06:04:21;3.30;99.90
22321;DHT22;11328;53.928;18.522;2022-12-07T06:06:49;3.30;99.90
22321;DHT22;11328;53.928;18.522;2022-12-07T06:09:17;3.40;99.90
22321;DHT22;11328;53.928;18.522;2022-12-07T06:11:45;3.40;99.90
22321;DHT22;11328;53.928;18.522;2022-12-07T06:14:31;3.40;99.90
22321;DHT22;11328;53.928;18.522;2022-12-07T06:16:58;3.40;99.90
22321;DHT22;11328;53.928;18.522;2022-12-07T06:19:26;3.30;99.90
22321;DHT22;11328;53.928;18.522;2022-12-07T06:21:53;3.30;99.90
22321;DHT22;11328;53.928;18.522;2022-12-07T06:24:21;3.40;99.90
22321;DHT22;11328;53.928;18.522;2022-12-07T06:26:48;3.40;99.90
22321;DHT22;11328;53.928;18.522;2022-12-07T06:29:16;3.40;99.90
22321;DHT22;11328;53.928;18.522;2022-12-07T06:31:46;3.30;99.90
22321;DHT22;11328;53.928;18.522;2022-12-07T06:34:16;3.30;99.90
22321;DHT22;11328;53.928;18.522;2022-12-07T06:36:45;3.20;99.90
22321;DHT22;11328;53.928;18.522;2022-12-07T06:39:18;3.20;99.90
22321;DHT22;11328;53.928;18.522;2022-12-07T06:41:46;3.20;99.90
22321;DHT22;11328;53.928;18.522;2022-12-07T06:44:14;3.20;99.90
22321;DHT22;11328;53.928;18.522;2022-12-07T06:46:41;3.20;99.90
22321;DHT22;11328;53.928;18.522;2022-12-07T06:49:08;3.30;99.90
22321;DHT22;11328;53.928;18.522;2022-12-07T06:51:35;3.10;99.90
22321;DHT22;11328;53.928;18.522;2022-12-07T06:54:03;3.10;99.90
22321;DHT22;11328;53.928;18.522;2022-12-07T06:56:30;3.20;99.90
22321;DHT22;11328;53.928;18.522;2022-12-07T06:58:57;3.10;99.90
22321;DHT22;11328;53.928;18.522;2022-12-07T07:01:24;3.10;99.90
22321;DHT22;11328;53.928;18.522;2022-12-07T07:03:51;3.10;99.90
22321;DHT22;11328;53.928;18.522;2022-12-07T07:06:18;3.10;99.90
22321;DHT22;11328;53.928;18.522;2022-12-07T07:08:45;3.10;99.90
22321;DHT22;11328;53.928;18.522;2022-12-07T07:11:12;3.10;99.90
22321;DHT22;11328;53.928;18.522;2022-12-07T07:13:39;3.10;99.90
22321;DHT22;11328;53.928;18.522;2022-12-07T07:16:07;3.00;99.90
22321;DHT22;11328;53.928;18.522;2022-12-07T07:18:34;3.10;99.90
22321;DHT22;11328;53.928;18.522;2022-12-07T07:21:01;2.90;99.90
22321;DHT22;11328;53.928;18.522;2022-12-07T07:23:29;3.00;99.90
22321;DHT22;11328;53.928;18.522;2022-12-07T07:25:56;3.00;99.90
22321;DHT22;11328;53.928;18.522;2022-12-07T07:28:23;3.00;99.90
22321;DHT22;11328;53.928;18.522;2022-12-07T07:30:50;3.00;99.90
22321;DHT22;11328;53.928;18.522;2022-12-07T07:33:17;3.00;99.90
22321;DHT22;11328;53.928;18.522;2022-12-07T07:35:44;3.00;99.90
22321;DHT22;11328;53.928;18.522;2022-12-07T07:38:11;3.00;99.90
22321;DHT22;11328;53.928;18.522;2022-12-07T07:40:38;3.00;99.90
22321;DHT22;11328;53.928;18.522;2022-12-07T07:43:05;3.00;99.90
22321;DHT22;11328;53.928;18.522;2022-12-07T07:45:32;3.00;99.90
22321;DHT22;11328;53.928;18.522;2022-12-07T07:47:59;3.00;99.90
22321;DHT22;11328;53.928;18.522;2022-12-07T07:50:26;3.00;99.90
22321;DHT22;11328;53.928;18.522;2022-12-07T07:52:53;3.10;99.90
22321;DHT22;11328;53.928;18.522;2022-12-07T07:55:20;3.10;99.90
22321;DHT22;11328;53.928;18.522;2022-12-07T07:57:47;3.10;99.90
22321;DHT22;11328;53.928;18.522;2022-12-07T08:00:21;3.20;99.90
22321;DHT22;11328;53.928;18.522;2022-12-07T08:02:48;3.20;99.90
22321;DHT22;11328;53.928;18.522;2022-12-07T08:05:16;3.10;99.90
22321;DHT22;11328;53.928;18.522;2022-12-07T08:07:43;3.20;99.90
22321;DHT22;11328;53.928;18.522;2022-12-07T08:10:12;3.20;99.90
22321;DHT22;11328;53.928;18.522;2022-12-07T08:12:41;3.10;99.90
22321;DHT22;11328;53.928;18.522;2022-12-07T08:15:30;3.10;99.90
22321;DHT22;11328;53.928;18.522;2022-12-07T08:17:58;3.10;99.90
22321;DHT22;11328;53.928;18.522;2022-12-07T08:20:25;3.10;99.90
22321;DHT22;11328;53.928;18.522;2022-12-07T08:22:53;3.10;99.90
22321;DHT22;11328;53.928;18.522;2022-12-07T08:25:20;3.10;99.90
22321;DHT22;11328;53.928;18.522;2022-12-07T10:59:02;2.50;99.90
22321;DHT22;11328;53.928;18.522;2022-12-07T11:01:55;2.60;99.90
22321;DHT22;11328;53.928;18.522;2022-12-07T11:07:37;2.60;99.90
22321;DHT22;11328;53.928;18.522;2022-12-07T11:15:26;2.70;99.90
22321;DHT22;11328;53.928;18.522;2022-12-07T11:35:25;2.80;99.90
22321;DHT22;11328;53.928;18.522;2022-12-07T11:38:14;2.80;99.90
22321;DHT22;11328;53.928;18.522;2022-12-07T11:40:53;2.80;99.90
22321;DHT22;11328;53.928;18.522;2022-12-07T11:51:56;2.90;99.90
22321;DHT22;11328;53.928;18.522;2022-12-07T11:54:34;2.90;99.90
22321;DHT22;11328;53.928;18.522;2022-12-07T11:57:13;3.00;99.90
22321;DHT22;11328;53.928;18.522;2022-12-07T11:59:50;3.00;99.90
22321;DHT22;11328;53.928;18.522;2022-12-07T12:02:34;3.10;99.90
22321;DHT22;11328;53.928;18.522;2022-12-07T12:05:18;3.00;99.90
22321;DHT22;11328;53.928;18.522;2022-12-07T12:08:13;3.20;99.90
22321;DHT22;11328;53.928;18.522;2022-12-07T12:15:17;3.20;99.90
22321;DHT22;11328;53.928;18.522;2022-12-07T12:21:17;3.10;99.90
22321;DHT22;11328;53.928;18.522;2022-12-07T12:24:02;3.00;99.90
22321;DHT22;11328;53.928;18.522;2022-12-07T12:26:38;3.00;99.90
22321;DHT22;11328;53.928;18.522;2022-12-07T12:29:26;3.10;99.90
22321;DHT22;11328;53.928;18.522;2022-12-07T12:32:15;3.10;99.90
22321;DHT22;11328;53.928;18.522;2022-12-07T12:42:52;3.10;99.90
22321;DHT22;11328;53.928;18.522;2022-12-07T12:47:59;3.10;99.90
22321;DHT22;11328;53.928;18.522;2022-12-07T12:50:33;3.20;99.90
22321;DHT22;11328;53.928;18.522;2022-12-07T12:58:36;3.20;99.90
22321;DHT22;11328;53.928;18.522;2022-12-07T13:03:55;3.10;99.90
22321;DHT22;11328;53.928;18.522;2022-12-07T13:08:58;3.10;99.90
22321;DHT22;11328;53.928;18.522;2022-12-07T13:11:35;3.20;99.90
22321;DHT22;11328;53.928;18.522;2022-12-07T13:14:43;3.20;99.90
22321;DHT22;11328;53.928;18.522;2022-12-07T13:20:06;3.10;99.90
22321;DHT22;11328;53.928;18.522;2022-12-07T13:22:46;3.10;99.90
22321;DHT22;11328;53.928;18.522;2022-12-07T13:25:23;3.00;99.90
22321;DHT22;11328;53.928;18.522;2022-12-07T13:28:18;3.00;99.90
22321;DHT22;11328;53.928;18.522;2022-12-07T13:33:47;3.10;99.90
22321;DHT22;11328;53.928;18.522;2022-12-07T13:38:48;3.00;99.90
22321;DHT22;11328;53.928;18.522;2022-12-07T13:41:27;3.10;99.90
22321;DHT22;11328;53.928;18.522;2022-12-07T13:44:03;3.00;99.90
22321;DHT22;11328;53.928;18.522;2022-12-07T13:49:21;3.00;99.90
22321;DHT22;11328;53.928;18.522;2022-12-07T13:51:54;3.10;99.90
22321;DHT22;11328;53.928;18.522;2022-12-07T13:54:33;3.00;99.90
22321;DHT22;11328;53.928;18.522;2022-12-07T13:57:09;3.00;99.90
22321;DHT22;11328;53.928;18.522;2022-12-07T13:59:36;3.00;99.90
22321;DHT22;11328;53.928;18.522;2022-12-07T14:02:24;3.00;99.90
22321;DHT22;11328;53.928;18.522;2022-12-07T14:10:53;2.90;99.90
22321;DHT22;11328;53.928;18.522;2022-12-07T14:13:35;2.90;99.90
22321;DHT22;11328;53.928;18.522;2022-12-07T14:18:45;2.80;99.90
22321;DHT22;11328;53.928;18.522;2022-12-07T14:21:17;2.80;99.90
22321;DHT22;11328;53.928;18.522;2022-12-07T14:24:12;2.80;99.90
22321;DHT22;11328;53.928;18.522;2022-12-07T14:26:48;2.80;99.90
22321;DHT22;11328;53.928;18.522;2022-12-07T14:31:48;2.80;99.90
22321;DHT22;11328;53.928;18.522;2022-12-07T14:34:15;2.70;99.90
22321;DHT22;11328;53.928;18.522;2022-12-07T14:36:42;2.80;99.90
22321;DHT22;11328;53.928;18.522;2022-12-07T14:39:09;2.70;99.90
22321;DHT22;11328;53.928;18.522;2022-12-07T14:41:39;2.80;99.90
22321;DHT22;11328;53.928;18.522;2022-12-07T14:44:20;2.80;99.90
22321;DHT22;11328;53.928;18.522;2022-12-07T14:46:59;2.70;99.90
22321;DHT22;11328;53.928;18.522;2022-12-07T14:49:46;2.70;99.90
22321;DHT22;11328;53.928;18.522;2022-12-07T14:52:23;2.80;99.90
22321;DHT22;11328;53.928;18.522;2022-12-07T14:55:24;2.60;99.90
22321;DHT22;11328;53.928;18.522;2022-12-07T14:57:53;2.70;99.90
22321;DHT22;11328;53.928;18.522;2022-12-07T15:00:22;2.70;99.90
22321;DHT22;11328;53.928;18.522;2022-12-07T15:02:51;2.60;99.90
22321;DHT22;11328;53.928;18.522;2022-12-07T15:05:19;2.60;99.90
22321;DHT22;11328;53.928;18.522;2022-12-07T15:07:47;2.50;99.90
22321;DHT22;11328;53.928;18.522;2022-12-07T15:10:17;2.50;99.90
22321;DHT22;11328;53.928;18.522;2022-12-07T15:13:00;2.50;99.90
22321;DHT22;11328;53.928;18.522;2022-12-07T15:15:48;2.50;99.90
22321;DHT22;11328;53.928;18.522;2022-12-07T15:18:17;2.50;99.90
22321;DHT22;11328;53.928;18.522;2022-12-07T15:20:45;2.50;99.90
22321;DHT22;11328;53.928;18.522;2022-12-07T15:23:12;2.50;99.90
22321;DHT22;11328;53.928;18.522;2022-12-07T15:25:47;2.50;99.90
22321;DHT22;11328;53.928;18.522;2022-12-07T15:28:15;2.50;99.90
22321;DHT22;11328;53.928;18.522;2022-12-07T15:30:43;2.40;99.90
22321;DHT22;11328;53.928;18.522;2022-12-07T15:33:12;2.40;99.90
22321;DHT22;11328;53.928;18.522;2022-12-07T15:35:41;2.30;99.90
22321;DHT22;11328;53.928;18.522;2022-12-07T15:38:11;2.30;99.90
22321;DHT22;11328;53.928;18.522;2022-12-07T15:40:39;2.30;99.90
22321;DHT22;11328;53.928;18.522;2022-12-07T15:43:08;2.30;99.90
22321;DHT22;11328;53.928;18.522;2022-12-07T15:45:56;2.30;99.90
22321;DHT22;11328;53.928;18.522;2022-12-07T15:48:23;2.30;99.90
22321;DHT22;11328;53.928;18.522;2022-12-07T15:51:05;2.30;99.90
22321;DHT22;11328;53.928;18.522;2022-12-07T15:53:35;2.30;99.90
22321;DHT22;11328;53.928;18.522;2022-12-07T15:56:06;2.40;99.90
22321;DHT22;11328;53.928;18.522;2022-12-07T15:58:34;2.30;99.90
22321;DHT22;11328;53.928;18.522;2022-12-07T16:01:10;2.30;99.90
22321;DHT22;11328;53.928;18.522;2022-12-07T16:03:43;2.20;99.90
22321;DHT22;11328;53.928;18.522;2022-12-07T16:06:11;2.20;99.90
22321;DHT22;11328;53.928;18.522;2022-12-07T16:08:43;2.20;99.90
22321;DHT22;11328;53.928;18.522;2022-12-07T16:11:11;2.30;99.90
22321;DHT22;11328;53.928;18.522;2022-12-07T16:13:40;2.20;99.90
22321;DHT22;11328;53.928;18.522;2022-12-07T16:16:10;2.20;99.90
22321;DHT22;11328;53.928;18.522;2022-12-07T16:18:39;2.20;99.90
22321;DHT22;11328;53.928;18.522;2022-12-07T16:21:08;2.20;99.90
22321;DHT22;11328;53.928;18.522;2022-12-07T16:35:44;2.20;99.90
22321;DHT22;11328;53.928;18.522;2022-12-07T16:38:11;2.50;99.90
22321;DHT22;11328;53.928;18.522;2022-12-07T16:40:38;2.40;99.90
22321;DHT22;11328;53.928;18.522;2022-12-07T16:43:05;2.30;99.90
22321;DHT22;11328;53.928;18.522;2022-12-07T16:45:33;2.30;99.90
22321;DHT22;11328;53.928;18.522;2022-12-07T16:48:00;2.30;99.90
22321;DHT22;11328;53.928;18.522;2022-12-07T16:50:27;2.30;99.90
22321;DHT22;11328;53.928;18.522;2022-12-07T16:52:53;2.20;99.90
22321;DHT22;11328;53.928;18.522;2022-12-07T16:55:20;2.20;99.90
22321;DHT22;11328;53.928;18.522;2022-12-07T16:57:47;2.20;99.90
22321;DHT22;11328;53.928;18.522;2022-12-07T17:00:15;2.20;99.90
22321;DHT22;11328;53.928;18.522;2022-12-07T17:02:42;2.10;99.90
22321;DHT22;11328;53.928;18.522;2022-12-07T17:05:09;2.20;99.90
22321;DHT22;11328;53.928;18.522;2022-12-07T17:07:36;2.20;99.90
22321;DHT22;11328;53.928;18.522;2022-12-07T17:10:04;2.20;99.90
22321;DHT22;11328;53.928;18.522;2022-12-07T17:12:31;2.20;99.90
22321;DHT22;11328;53.928;18.522;2022-12-07T17:14:58;2.20;99.90
22321;DHT22;11328;53.928;18.522;2022-12-07T17:17:54;2.20;99.90
22321;DHT22;11328;53.928;18.522;2022-12-07T17:20:26;2.20;99.90
22321;DHT22;11328;53.928;18.522;2022-12-07T17:22:53;2.20;99.90
22321;DHT22;11328;53.928;18.522;2022-12-07T17:25:20;2.20;99.90
22321;DHT22;11328;53.928;18.522;2022-12-07T17:27:47;2.30;99.90
22321;DHT22;11328;53.928;18.522;2022-12-07T17:30:15;2.20;99.90
22321;DHT22;11328;53.928;18.522;2022-12-07T17:32:42;2.30;99.90
22321;DHT22;11328;53.928;18.522;2022-12-07T17:35:09;2.40;99.90
22321;DHT22;11328;53.928;18.522;2022-12-07T17:37:36;2.30;99.90
22321;DHT22;11328;53.928;18.522;2022-12-07T17:40:04;2.30;99.90
22321;DHT22;11328;53.928;18.522;2022-12-07T17:42:32;2.30;99.90
22321;DHT22;11328;53.928;18.522;2022-12-07T17:45:13;2.30;99.90
22321;DHT22;11328;53.928;18.522;2022-12-07T17:47:40;2.30;99.90
22321;DHT22;11328;53.928;18.522;2022-12-07T17:50:08;2.20;99.90
22321;DHT22;11328;53.928;18.522;2022-12-07T17:52:39;2.20;99.90
22321;DHT22;11328;53.928;18.522;2022-12-07T17:55:25;2.20;99.90
22321;DHT22;11328;53.928;18.522;2022-12-07T17:57:52;2.30;99.90
22321;DHT22;11328;53.928;18.522;2022-12-07T18:00:19;2.30;99.90
22321;DHT22;11328;53.928;18.522;2022-12-07T18:02:46;2.30;99.90
22321;DHT22;11328;53.928;18.522;2022-12-07T18:05:13;2.20;99.90
22321;DHT22;11328;53.928;18.522;2022-12-07T18:07:40;2.20;99.90
22321;DHT22;11328;53.928;18.522;2022-12-07T18:10:08;2.30;99.90
22321;DHT22;11328;53.928;18.522;2022-12-07T18:12:38;2.40;99.90
22321;DHT22;11328;53.928;18.522;2022-12-07T18:15:14;2.30;99.90
22321;DHT22;11328;53.928;18.522;2022-12-07T18:17:41;2.40;99.90
22321;DHT22;11328;53.928;18.522;2022-12-07T18:20:08;2.30;99.90
22321;DHT22;11328;53.928;18.522;2022-12-07T18:22:35;2.30;99.90
22321;DHT22;11328;53.928;18.522;2022-12-07T18:25:05;2.40;99.90
22321;DHT22;11328;53.928;18.522;2022-12-07T18:27:33;2.30;99.90
22321;DHT22;11328;53.928;18.522;2022-12-07T18:30:00;2.40;99.90
22321;DHT22;11328;53.928;18.522;2022-12-07T18:32:27;2.30;99.90
22321;DHT22;11328;53.928;18.522;2022-12-07T18:34:56;2.30;99.90
22321;DHT22;11328;53.928;18.522;2022-12-07T18:37:23;2.40;99.90
22321;DHT22;11328;53.928;18.522;2022-12-07T18:39:53;2.40;99.90
22321;DHT22;11328;53.928;18.522;2022-12-07T18:42:21;2.40;99.90
22321;DHT22;11328;53.928;18.522;2022-12-07T18:44:48;2.20;99.90
22321;DHT22;11328;53.928;18.522;2022-12-07T18:47:15;2.20;99.90
22321;DHT22;11328;53.928;18.522;2022-12-07T18:49:42;2.30;99.90
22321;DHT22;11328;53.928;18.522;2022-12-07T18:52:09;2.20;99.90
22321;DHT22;11328;53.928;18.522;2022-12-07T18:54:36;2.20;99.90
22321;DHT22;11328;53.928;18.522;2022-12-07T18:57:03;2.20;99.90
22321;DHT22;11328;53.928;18.522;2022-12-07T18:59:30;2.20;99.90
22321;DHT22;11328;53.928;18.522;2022-12-07T19:02:12;2.20;99.90
22321;DHT22;11328;53.928;18.522;2022-12-07T19:04:38;2.20;99.90
22321;DHT22;11328;53.928;18.522;2022-12-07T19:07:06;2.20;99.90
22321;DHT22;11328;53.928;18.522;2022-12-07T19:09:33;2.20;99.90
22321;DHT22;11328;53.928;18.522;2022-12-07T19:12:00;2.10;99.90
22321;DHT22;11328;53.928;18.522;2022-12-07T19:14:32;2.30;99.90
22321;DHT22;11328;53.928;18.522;2022-12-07T19:17:07;2.20;99.90
22321;DHT22;11328;53.928;18.522;2022-12-07T19:19:42;2.30;99.90
22321;DHT22;11328;53.928;18.522;2022-12-07T19:22:13;2.20;99.90
22321;DHT22;11328;53.928;18.522;2022-12-07T19:24:43;2.20;99.90
22321;DHT22;11328;53.928;18.522;2022-12-07T19:27:15;2.20;99.90
22321;DHT22;11328;53.928;18.522;2022-12-07T19:29:43;2.20;99.90
22321;DHT22;11328;53.928;18.522;2022-12-07T19:32:12;2.30;99.90
22321;DHT22;11328;53.928;18.522;2022-12-07T19:34:43;2.30;99.90
22321;DHT22;11328;53.928;18.522;2022-12-07T19:37:12;2.20;99.90
22321;DHT22;11328;53.928;18.522;2022-12-07T19:39:40;2.20;99.90
22321;DHT22;11328;53.928;18.522;2022-12-07T19:42:10;2.20;99.90
22321;DHT22;11328;53.928;18.522;2022-12-07T19:44:37;2.20;99.90
22321;DHT22;11328;53.928;18.522;2022-12-07T19:47:04;2.20;99.90
22321;DHT22;11328;53.928;18.522;2022-12-07T19:49:33;2.20;99.90
22321;DHT22;11328;53.928;18.522;2022-12-07T19:52:04;2.20;99.90
22321;DHT22;11328;53.928;18.522;2022-12-07T19:54:34;2.20;99.90
22321;DHT22;11328;53.928;18.522;2022-12-07T19:57:01;2.10;99.90
22321;DHT22;11328;53.928;18.522;2022-12-07T19:59:31;2.00;99.90
22321;DHT22;11328;53.928;18.522;2022-12-07T20:01:59;2.00;99.90
22321;DHT22;11328;53.928;18.522;2022-12-07T20:04:28;2.00;99.90
22321;DHT22;11328;53.928;18.522;2022-12-07T20:06:59;2.00;99.90
22321;DHT22;11328;53.928;18.522;2022-12-07T20:09:26;2.00;99.90
22321;DHT22;11328;53.928;18.522;2022-12-07T20:11:54;2.00;99.90
22321;DHT22;11328;53.928;18.522;2022-12-07T20:14:39;2.00;99.90
22321;DHT22;11328;53.928;18.522;2022-12-07T20:17:06;2.00;99.90
22321;DHT22;11328;53.928;18.522;2022-12-07T20:19:37;2.10;99.90
22321;DHT22;11328;53.928;18.522;2022-12-07T20:22:05;2.00;99.90
22321;DHT22;11328;53.928;18.522;2022-12-07T20:24:32;2.00;99.90
22321;DHT22;11328;53.928;18.522;2022-12-07T20:27:02;1.90;99.90
22321;DHT22;11328;53.928;18.522;2022-12-07T20:29:31;1.90;99.90
22321;DHT22;11328;53.928;18.522;2022-12-07T20:31:58;2.00;99.90
22321;DHT22;11328;53.928;18.522;2022-12-07T20:34:25;2.00;99.90
22321;DHT22;11328;53.928;18.522;2022-12-07T20:36:53;2.00;99.90
22321;DHT22;11328;53.928;18.522;2022-12-07T20:39:20;2.00;99.90
22321;DHT22;11328;53.928;18.522;2022-12-07T20:41:49;2.00;99.90
22321;DHT22;11328;53.928;18.522;2022-12-07T20:44:35;1.90;99.90
22321;DHT22;11328;53.928;18.522;2022-12-07T20:47:04;2.00;99.90
22321;DHT22;11328;53.928;18.522;2022-12-07T20:49:32;1.90;99.90